Airfield :
LOGIN :

Register | Disclaimer

   EN    FR    IT 

 










Legend :    VFR   Marginal VFR   IFR   Intensive IFR   Very Intensive IFR
Visi :
Ceiling :
>= 8 km
>= 3000ft
5 to 8 km
1000 to 3000 ft
1500m to 5 km
500 to 1000 ft
800 to 1500m
200 to 500 ft
< 800m
< 200 ft
Symbols :   Thunderstorms  Fog  Heavy snow  Heavy precipitations  Wind > 20 kt
SIGMETs :     Misc.  Thunderstorms  Icing  Turbulence  Mountain Waves  Volcanic Ashes







- Airport Elevation : 171 ft
- IATA code : EGC
- Download approach charts


LFBE - Bergerac

CURRENT METAR :
  • 120600Z AUTO 06005KT 7000 FEW006 M02/M02 Q1020 TEMPO 3000 -RA BKN003

EXPIRED METARs :
  • 120530Z AUTO 07005KT 4400 BR BKN006 BKN010 M01/M02 Q1020
  • 120500Z AUTO 06004KT 6000 VV/// M01/M02 Q1020
  • 120430Z AUTO 08005KT 1500 BR VV/// M01/M01 Q1020
  • 120400Z AUTO 07005KT 2000 BR VV/// M01/M01 Q1021
  • 120330Z AUTO 07005KT 7000 NSC M00/M01 Q1020

TAF TAF LFBE
Valid from the 12 at 06:00 until the 13 at 06:00 UTC


120500Z 1206/1306 16005KT 7000 BKN020
TEMPO 1206/1208 2000 BR BKN003
BECMG 1207/1209 OVC010
PROB40 1207/1210 3000 -RA
TEMPO 1221/1304 2000 BR OVC003
No reported NOTAMs for that airfield.
1 SIGMET reported for the Bordeaux FIR (LFBB) :
 
Severe turbulence
LFBB SIGMET 1 VALID 120400/120800 LFPW
LFBB BORDEAUX FIR/UIR SEV TURB FCST NW OF LINE N4545 W00145 - N4630 W00045 FL160/260 MOV SE 30KT NC=



MET'MAP, your aeronautical weather chart ! - Copyright ORBIFLY December 2007 - Disclaimer

ORBIFLY MET'MAP TEAM :

Programming & Development : Alexandra Zaïnal
Concept & Development : Baudouin d'Aumeries
Co-Development & Prog : Marc-Olivier Méhu
Technical & hardware support : Manuel Goepfert

Contact : metmap@orbifly.com




SOURCES & CREDITS :

   NOAA